Static map - map view · info · telemetry · weather · raw · status · beacons · messages · bulletins · browse · moving · my account
Callsign, ship name or locator: Clear       
This page displays positions on a static map. It is designed to provide maximum compatibility with mobile devices and old browsers. The map does not update automatically. Please reload the page to get an updated view. This view supports looking up multiple comma-separated callsigns. Example: Rautauoma,OH2RDK
1: EDXW 54°54.65' N 8°20.00' E - JO44DV98XO
Static map showing the positions
Zoom: 2 4 6 7 8 9 10 11 12 13 14
1: EDXW - 54°54.65' N 8°20.00' E - JO44DV98XO
Source callsign: DK6PX
Comment: EDXW 221520Z 11015KT CAVOK 06/M05 Q1037
Location: 54°54.65' N 8°20.00' E - locator JO44DV98XO - show map - static map
1.2 miles East bearing 80° from Westerland, Schleswig-Holstein, Germany [?]
4.6 miles Northwest bearing 318° from Sylt-Ost, Schleswig-Holstein, Germany
44.6 miles West bearing 282° from Flensburg, Schleswig-Holstein, Germany
82.7 miles Northwest bearing 300° from Kiel, Schleswig-Holstein, Germany
Last position: 2020-04-03 19:06:28 EDT (33m24s ago)
2020-04-04 01:06:28 CEST local time at Westerland, Germany [?]
User guide · FAQ · Blog · Discussion group · Linking to aprs.fi · AIS sites · Service status · Database statistics · Advertising on aprs.fi · Technical details · API · Change log · Planned changes · Credits and thanks · Terms Of Service · iPhone/iPad APRS